Time;durP1;ratioP1;P1;durP2;ratioP2;P2;SDS_P1;SDS_P2;PMS_P1;PMS_P2;Temp;Humidity;BMP_temperature;BMP_pressure;BME280_temperature;BME280_humidity;BME280_pressure;Samples;Min_cycle;Max_cycle;Signal;HPM_P1;HPM_P2
2023/10/04 00:00:47;;;;;;;4.18;1.42;;;20.30;99.90;;;;;;5053509;28;20421;-39
2023/10/04 00:03:13;;;;;;;2.42;1.33;;;20.30;99.90;;;;;;5053469;28;20029;-42
2023/10/04 00:05:38;;;;;;;3.40;1.63;;;20.30;99.90;;;;;;5035255;28;20083;-37
2023/10/04 00:08:05;;;;;;;4.90;1.50;;;20.30;99.90;;;;;;5035382;28;20029;-37
2023/10/04 00:10:33;;;;;;;2.55;1.50;;;20.30;99.90;;;;;;5053765;28;20045;-37
2023/10/04 00:12:58;;;;;;;2.47;1.63;;;20.40;99.90;;;;;;5035986;28;20033;-37
2023/10/04 00:15:27;;;;;;;2.50;1.50;;;20.30;99.90;;;;;;5053236;28;20044;-45
2023/10/04 00:17:52;;;;;;;2.85;1.70;;;20.30;99.90;;;;;;5053334;28;20052;-38
2023/10/04 00:20:19;;;;;;;2.65;1.55;;;20.30;99.90;;;;;;5053869;28;20048;-40
2023/10/04 00:22:46;;;;;;;2.55;1.70;;;20.30;99.90;;;;;;5054810;28;20032;-36
2023/10/04 00:25:20;;;;;;;2.42;1.50;;;20.30;99.90;;;;;;5053252;28;20104;-38
2023/10/04 00:27:47;;;;;;;2.40;1.40;;;20.30;99.90;;;;;;5054741;28;20029;-37
2023/10/04 00:30:17;;;;;;;3.50;1.80;;;20.30;99.90;;;;;;5053159;28;20483;-39
2023/10/04 00:32:44;;;;;;;4.53;1.50;;;20.30;99.90;;;;;;5052951;28;20025;-35
2023/10/04 00:35:15;;;;;;;1.52;1.17;;;20.30;99.90;;;;;;5053125;28;20029;-38
2023/10/04 00:37:46;;;;;;;4.93;1.63;;;20.30;99.90;;;;;;5052829;28;20064;-35
2023/10/04 00:40:18;;;;;;;3.15;1.70;;;20.20;99.90;;;;;;5052784;28;20040;-38
2023/10/04 00:42:44;;;;;;;2.10;1.15;;;20.30;99.90;;;;;;5052708;28;20398;-38
2023/10/04 00:45:12;;;;;;;1.98;1.45;;;20.30;99.90;;;;;;5052484;28;20028;-37
2023/10/04 00:47:41;;;;;;;2.85;1.60;;;20.30;99.90;;;;;;5052355;28;20020;-37
2023/10/04 00:50:16;;;;;;;4.20;1.60;;;20.20;99.90;;;;;;5052625;28;20031;-37
2023/10/04 00:52:54;;;;;;;1.48;1.30;;;20.30;99.90;;;;;;5052569;28;20475;-40
2023/10/04 00:55:21;;;;;;;2.70;1.70;;;20.20;99.90;;;;;;5052385;28;20096;-36
2023/10/04 00:57:49;;;;;;;2.40;1.40;;;20.20;99.90;;;;;;5052657;28;20371;-38
2023/10/04 01:00:17;;;;;;;2.28;1.40;;;20.30;99.90;;;;;;5052291;28;20028;-36
2023/10/04 01:02:44;;;;;;;3.13;1.73;;;20.20;99.90;;;;;;5052355;28;20112;-42
2023/10/04 01:05:11;;;;;;;2.53;1.67;;;20.20;99.90;;;;;;5051313;28;20024;-38
2023/10/04 01:07:39;;;;;;;3.10;1.55;;;20.20;99.90;;;;;;5052119;28;20017;-39
2023/10/04 01:10:15;;;;;;;2.63;1.60;;;20.20;99.90;;;;;;5052228;28;20024;-38
2023/10/04 01:12:45;;;;;;;2.90;1.70;;;20.20;99.90;;;;;;5051989;28;20021;-38
2023/10/04 01:15:30;;;;;;;4.25;1.70;;;20.20;99.90;;;;;;5051949;28;20470;-34
2023/10/04 01:17:57;;;;;;;2.05;1.30;;;20.20;99.90;;;;;;5051932;28;20475;-41
2023/10/04 01:20:33;;;;;;;2.42;1.35;;;20.20;99.90;;;;;;5052029;28;20107;-37
2023/10/04 01:23:00;;;;;;;2.65;1.20;;;20.20;99.90;;;;;;5052068;28;20111;-34
2023/10/04 01:25:27;;;;;;;2.47;1.65;;;20.20;99.90;;;;;;5051670;28;20025;-35
2023/10/04 01:27:54;;;;;;;2.13;1.50;;;20.20;99.90;;;;;;5051695;28;20040;-38
2023/10/04 01:30:19;;;;;;;1.98;1.55;;;20.20;99.90;;;;;;5051843;28;20482;-37
2023/10/04 01:32:49;;;;;;;2.08;1.40;;;20.20;99.90;;;;;;5051785;28;20032;-37
2023/10/04 01:35:18;;;;;;;2.30;1.40;;;20.20;99.90;;;;;;5051657;28;20276;-34
2023/10/04 01:37:44;;;;;;;3.17;1.65;;;20.10;99.90;;;;;;5051382;28;20418;-37
2023/10/04 01:40:12;;;;;;;2.50;1.63;;;20.20;99.90;;;;;;5051697;28;20489;-41
2023/10/04 01:42:40;;;;;;;2.85;1.60;;;20.10;99.90;;;;;;5051544;28;20033;-37
2023/10/04 01:45:11;;;;;;;1.90;1.27;;;20.10;99.90;;;;;;5051402;28;20053;-39
2023/10/04 01:47:38;;;;;;;2.58;1.42;;;20.10;99.90;;;;;;5051365;28;20033;-42
2023/10/04 01:50:05;;;;;;;3.47;1.60;;;20.10;99.90;;;;;;5051414;28;20379;-38
2023/10/04 01:52:31;;;;;;;1.75;1.27;;;20.10;99.90;;;;;;5051513;28;20021;-38
2023/10/04 01:54:58;;;;;;;2.67;1.50;;;20.10;99.90;;;;;;5051330;28;20391;-39
2023/10/04 01:57:24;;;;;;;2.20;1.65;;;20.10;99.90;;;;;;5051255;28;20486;-38
2023/10/04 01:59:49;;;;;;;2.55;1.55;;;20.10;99.90;;;;;;5051376;28;20159;-36
2023/10/04 02:02:17;;;;;;;2.45;1.60;;;20.10;99.90;;;;;;5051507;28;20021;-35
2023/10/04 02:04:46;;;;;;;2.65;1.60;;;20.10;99.90;;;;;;5051142;28;20020;-35
2023/10/04 02:07:12;;;;;;;2.40;1.35;;;20.10;99.90;;;;;;5051218;28;20020;-40
2023/10/04 02:09:38;;;;;;;4.70;1.73;;;20.10;99.90;;;;;;5051414;28;20021;-34
2023/10/04 02:12:04;;;;;;;2.03;1.30;;;20.10;99.90;;;;;;5051175;28;20117;-35
2023/10/04 02:14:33;;;;;;;1.80;1.42;;;20.00;99.90;;;;;;5051159;28;20032;-39
2023/10/04 02:17:00;;;;;;;2.55;1.35;;;20.10;99.90;;;;;;5050903;28;20025;-38
2023/10/04 02:19:26;;;;;;;1.85;1.50;;;20.00;99.90;;;;;;5050991;28;20021;-39
2023/10/04 02:21:51;;;;;;;3.17;1.60;;;20.00;99.90;;;;;;5033651;28;20040;-43
2023/10/04 02:24:17;;;;;;;4.07;1.50;;;20.00;99.90;;;;;;5051111;28;20421;-36
2023/10/04 02:26:43;;;;;;;3.65;1.58;;;20.00;99.90;;;;;;5050791;28;20505;-36
2023/10/04 02:29:09;;;;;;;2.65;1.40;;;20.00;99.90;;;;;;5051043;28;20024;-37
2023/10/04 02:31:36;;;;;;;2.60;1.45;;;20.00;99.90;;;;;;5051500;28;20047;-37
2023/10/04 02:34:04;;;;;;;3.72;1.70;;;20.00;99.90;;;;;;5050952;28;20498;-37
2023/10/04 02:36:30;;;;;;;3.08;1.75;;;20.00;99.90;;;;;;5050877;28;20021;-34
2023/10/04 02:38:57;;;;;;;2.63;1.60;;;20.00;99.90;;;;;;5050960;28;20117;-34
2023/10/04 02:41:23;;;;;;;2.15;1.30;;;20.00;99.90;;;;;;5050976;28;20475;-34
2023/10/04 02:43:49;;;;;;;3.88;1.50;;;20.00;99.90;;;;;;5051164;28;20415;-34
2023/10/04 02:46:16;;;;;;;2.63;1.48;;;20.00;99.90;;;;;;5051360;28;20055;-42
2023/10/04 02:48:42;;;;;;;2.03;1.33;;;20.00;99.90;;;;;;5050647;28;20152;-36
2023/10/04 02:51:08;;;;;;;2.72;1.77;;;20.00;99.90;;;;;;5050840;28;20445;-38
2023/10/04 02:53:34;;;;;;;2.70;1.50;;;20.00;99.90;;;;;;5050891;28;20025;-41
2023/10/04 02:56:06;;;;;;;4.85;1.50;;;20.00;99.90;;;;;;5050554;28;20104;-38
2023/10/04 02:58:34;;;;;;;3.45;1.80;;;20.00;99.90;;;;;;5050728;28;20518;-42
2023/10/04 03:01:00;;;;;;;3.13;1.58;;;20.00;99.90;;;;;;5050716;28;20082;-38
2023/10/04 03:03:30;;;;;;;2.75;1.40;;;20.00;99.90;;;;;;5032883;28;20037;-37
2023/10/04 03:05:56;;;;;;;1.95;1.30;;;20.00;99.90;;;;;;5050518;28;21039;-37
2023/10/04 03:08:23;;;;;;;2.88;1.63;;;19.90;99.90;;;;;;5050727;28;20096;-36
2023/10/04 03:10:50;;;;;;;2.42;1.50;;;20.00;99.90;;;;;;5050718;28;20025;-41
2023/10/04 03:13:23;;;;;;;1.85;1.20;;;19.90;99.90;;;;;;5050709;28;20028;-38
2023/10/04 03:15:52;;;;;;;2.00;1.23;;;19.90;99.90;;;;;;5050435;28;20029;-42
2023/10/04 03:18:21;;;;;;;2.35;1.55;;;19.90;99.90;;;;;;5050579;28;20056;-38
2023/10/04 03:21:10;;;;;;;3.00;1.40;;;19.90;99.90;;;;;;5050570;28;20433;-38
2023/10/04 03:23:35;;;;;;;2.60;1.55;;;19.90;99.90;;;;;;5049918;28;20502;-41
2023/10/04 03:26:04;;;;;;;3.15;1.50;;;19.90;99.90;;;;;;5050243;28;20382;-43
2023/10/04 03:28:35;;;;;;;2.13;1.58;;;19.90;99.90;;;;;;5052440;28;20078;-37
2023/10/04 03:31:04;;;;;;;2.95;1.50;;;19.90;99.90;;;;;;5054164;28;20025;-39
2023/10/04 03:33:35;;;;;;;2.65;1.40;;;19.90;99.90;;;;;;5054239;28;20032;-37
2023/10/04 03:36:04;;;;;;;1.98;1.38;;;19.90;99.90;;;;;;5053721;28;20096;-37
2023/10/04 03:38:33;;;;;;;2.33;1.30;;;19.90;99.90;;;;;;5053780;28;20546;-40
2023/10/04 03:41:05;;;;;;;2.05;1.30;;;19.90;99.90;;;;;;5053878;28;20490;-37
2023/10/04 03:43:31;;;;;;;2.70;1.30;;;19.90;99.90;;;;;;5053850;28;20033;-37
2023/10/04 03:45:57;;;;;;;2.50;1.30;;;19.90;99.90;;;;;;5053655;28;20021;-41
2023/10/04 03:48:24;;;;;;;2.13;1.50;;;19.90;99.90;;;;;;5054159;28;20025;-41
2023/10/04 03:50:51;;;;;;;2.38;1.38;;;19.90;99.90;;;;;;5053700;28;20067;-42
2023/10/04 03:53:21;;;;;;;2.88;1.20;;;19.90;99.90;;;;;;5053547;28;20032;-41
2023/10/04 03:55:47;;;;;;;2.88;1.50;;;19.80;99.90;;;;;;5053453;28;20021;-47
2023/10/04 03:58:15;;;;;;;4.25;1.42;;;19.80;99.90;;;;;;5053516;28;20035;-41
2023/10/04 04:00:41;;;;;;;2.30;1.60;;;19.90;99.90;;;;;;5053563;28;20033;-43
2023/10/04 04:03:08;;;;;;;5.25;2.00;;;19.80;99.90;;;;;;5053548;28;20394;-35
2023/10/04 04:05:39;;;;;;;2.75;1.27;;;19.80;99.90;;;;;;5053158;28;20028;-38
2023/10/04 04:08:05;;;;;;;2.47;1.60;;;19.80;99.90;;;;;;5053368;28;20027;-42
2023/10/04 04:10:31;;;;;;;2.92;1.60;;;19.80;99.90;;;;;;5035648;28;20100;-37
2023/10/04 04:13:01;;;;;;;3.22;1.77;;;19.80;99.90;;;;;;5053483;28;20079;-44
2023/10/04 04:15:27;;;;;;;2.38;1.58;;;19.80;99.90;;;;;;5055519;28;20029;-37
2023/10/04 04:17:53;;;;;;;3.38;1.52;;;19.80;99.90;;;;;;5054247;28;20021;-41
2023/10/04 04:20:19;;;;;;;2.40;1.27;;;19.80;99.90;;;;;;5053218;28;20548;-41
2023/10/04 04:22:50;;;;;;;2.85;1.48;;;19.80;99.90;;;;;;5053319;28;20036;-39
2023/10/04 04:25:23;;;;;;;2.75;1.35;;;19.80;99.90;;;;;;5053016;28;20029;-36
2023/10/04 04:27:50;;;;;;;2.30;1.58;;;19.80;99.90;;;;;;5052989;28;20070;-39
2023/10/04 04:30:19;;;;;;;2.72;1.60;;;19.80;99.90;;;;;;5053013;28;20100;-39
2023/10/04 04:32:47;;;;;;;2.20;1.50;;;19.80;99.90;;;;;;5052754;28;20371;-39
2023/10/04 04:35:22;;;;;;;2.92;1.38;;;19.80;99.90;;;;;;5053021;28;20025;-39
2023/10/04 04:37:54;;;;;;;3.00;1.38;;;19.70;99.90;;;;;;5052620;28;20528;-37
2023/10/04 04:40:24;;;;;;;2.40;1.52;;;19.80;99.90;;;;;;5051692;28;20070;-37
2023/10/04 04:42:50;;;;;;;1.73;1.13;;;19.80;99.90;;;;;;5052772;28;20025;-34
2023/10/04 04:45:16;;;;;;;2.40;1.50;;;19.80;99.90;;;;;;5052473;28;20082;-34
2023/10/04 04:47:44;;;;;;;1.75;1.30;;;19.70;99.80;;;;;;5052428;28;20021;-37
2023/10/04 04:50:10;;;;;;;2.88;1.15;;;19.80;99.80;;;;;;5052729;28;20025;-41
2023/10/04 04:52:36;;;;;;;2.20;1.20;;;19.70;99.80;;;;;;5052523;28;20021;-40
2023/10/04 04:55:04;;;;;;;2.95;1.52;;;19.80;99.80;;;;;;5052435;28;20040;-36
2023/10/04 04:57:32;;;;;;;1.95;1.33;;;19.70;99.80;;;;;;5052331;28;20036;-38
2023/10/04 04:59:58;;;;;;;2.15;1.23;;;19.70;99.80;;;;;;5052384;28;20486;-40
2023/10/04 05:02:28;;;;;;;2.08;1.30;;;19.70;99.80;;;;;;5052581;28;20035;-42
2023/10/04 05:04:54;;;;;;;2.63;1.23;;;19.70;99.70;;;;;;5052274;28;20032;-41
2023/10/04 05:07:19;;;;;;;2.47;1.30;;;19.70;99.80;;;;;;5052133;28;20032;-39
2023/10/04 05:09:45;;;;;;;3.08;1.20;;;19.70;99.70;;;;;;5052631;28;20033;-42
2023/10/04 05:12:11;;;;;;;2.28;1.25;;;19.70;99.70;;;;;;5052073;28;20028;-35
2023/10/04 05:14:37;;;;;;;1.73;1.20;;;19.70;99.70;;;;;;5052028;28;20363;-39
2023/10/04 05:17:03;;;;;;;2.72;1.40;;;19.70;99.70;;;;;;5034095;28;20032;-39
2023/10/04 05:19:29;;;;;;;1.88;1.20;;;19.70;99.70;;;;;;5051968;28;20033;-40
2023/10/04 05:21:55;;;;;;;2.95;1.33;;;19.70;99.70;;;;;;5051966;28;20056;-40
2023/10/04 05:24:21;;;;;;;3.08;1.67;;;19.70;99.70;;;;;;5052327;28;20064;-37
2023/10/04 05:26:47;;;;;;;2.50;1.17;;;19.70;99.60;;;;;;5051752;28;20059;-40
2023/10/04 05:29:13;;;;;;;2.28;1.33;;;19.70;99.60;;;;;;5051819;28;20022;-42
2023/10/04 05:31:40;;;;;;;3.75;1.58;;;19.70;99.60;;;;;;5051845;28;20044;-38
2023/10/04 05:34:05;;;;;;;3.92;1.30;;;19.70;99.60;;;;;;5051819;28;20096;-37
2023/10/04 05:36:31;;;;;;;2.25;1.33;;;19.70;99.60;;;;;;5051615;28;20075;-36
2023/10/04 05:38:57;;;;;;;2.97;1.48;;;19.70;99.50;;;;;;5051597;28;20492;-37
2023/10/04 05:41:23;;;;;;;2.05;1.20;;;19.70;99.60;;;;;;5051605;28;20021;-37
2023/10/04 05:43:49;;;;;;;2.75;1.20;;;19.60;99.50;;;;;;5051633;28;20117;-38
2023/10/04 05:46:14;;;;;;;2.08;1.40;;;19.60;99.50;;;;;;5051322;28;20100;-36
2023/10/04 05:48:40;;;;;;;2.53;1.20;;;19.60;99.40;;;;;;5051407;28;20394;-36
2023/10/04 05:51:07;;;;;;;1.83;1.10;;;19.60;99.40;;;;;;5051105;28;20021;-41
2023/10/04 05:53:33;;;;;;;1.70;1.08;;;19.60;99.40;;;;;;5051489;28;20036;-41
2023/10/04 05:55:58;;;;;;;2.58;1.15;;;19.60;99.30;;;;;;5051163;28;20025;-38
2023/10/04 05:58:25;;;;;;;2.22;1.30;;;19.60;99.30;;;;;;5051327;28;20120;-38
2023/10/04 06:00:54;;;;;;;2.85;1.35;;;19.60;99.40;;;;;;5051389;28;20025;-37
2023/10/04 06:03:20;;;;;;;2.42;1.33;;;19.60;99.40;;;;;;5051526;28;20029;-40
2023/10/04 06:05:46;;;;;;;2.10;1.20;;;19.60;99.40;;;;;;5051033;28;20545;-39
2023/10/04 06:08:18;;;;;;;2.17;1.33;;;19.60;99.40;;;;;;5051238;28;20017;-44
2023/10/04 06:10:48;;;;;;;2.65;1.13;;;19.60;99.40;;;;;;5051229;28;20100;-37
2023/10/04 06:13:13;;;;;;;2.53;1.35;;;19.60;99.40;;;;;;5051438;28;20021;-38
2023/10/04 06:15:44;;;;;;;2.20;1.45;;;19.60;99.40;;;;;;5051041;28;20036;-39
2023/10/04 06:18:14;;;;;;;2.15;1.02;;;19.60;99.40;;;;;;5051047;28;20513;-37
2023/10/04 06:20:40;;;;;;;2.10;1.30;;;19.60;99.40;;;;;;5051085;28;20056;-40
2023/10/04 06:23:14;;;;;;;3.40;1.50;;;19.60;99.40;;;;;;5051037;28;20086;-36
2023/10/04 06:25:45;;;;;;;1.95;1.30;;;19.60;99.40;;;;;;5050775;28;20043;-38
2023/10/04 06:28:11;;;;;;;2.92;1.60;;;19.60;99.70;;;;;;5051030;28;20022;-45
2023/10/04 06:30:38;;;;;;;2.47;1.40;;;19.60;99.40;;;;;;5051341;28;20406;-35
2023/10/04 06:33:06;;;;;;;2.13;1.10;;;19.60;99.40;;;;;;5051128;28;20021;-37
2023/10/04 06:35:32;;;;;;;2.22;1.23;;;19.60;99.40;;;;;;5050871;28;20032;-38
2023/10/04 06:38:07;;;;;;;2.38;1.35;;;19.60;99.40;;;;;;5051580;28;20029;-39
2023/10/04 06:40:33;;;;;;;1.88;1.15;;;19.70;99.40;;;;;;5051009;28;20031;-37
2023/10/04 06:43:01;;;;;;;2.28;1.33;;;19.70;99.50;;;;;;5051004;28;20025;-34
2023/10/04 06:45:27;;;;;;;3.38;1.38;;;19.70;99.40;;;;;;5050740;28;20099;-38
2023/10/04 06:47:55;;;;;;;2.30;1.30;;;19.60;99.40;;;;;;5050669;28;20051;-35
2023/10/04 06:50:22;;;;;;;1.73;1.25;;;19.70;99.40;;;;;;5050713;28;20056;-35
2023/10/04 06:52:49;;;;;;;2.92;1.50;;;19.70;99.50;;;;;;5050830;28;20094;-38
2023/10/04 06:55:17;;;;;;;2.85;1.33;;;19.80;99.50;;;;;;5050740;28;20060;-38
2023/10/04 06:57:44;;;;;;;2.00;1.20;;;19.70;99.50;;;;;;5050663;28;20025;-35
2023/10/04 07:00:15;;;;;;;1.60;1.10;;;19.80;99.50;;;;;;5050802;28;20024;-38
2023/10/04 07:02:54;;;;;;;2.08;1.30;;;19.80;99.50;;;;;;5051474;28;20033;-43
2023/10/04 07:05:35;;;;;;;2.25;1.30;;;19.80;99.60;;;;;;5054386;28;20414;-39
2023/10/04 07:08:01;;;;;;;1.95;1.23;;;19.80;99.50;;;;;;5054768;28;20554;-45
2023/10/04 07:10:28;;;;;;;1.92;1.02;;;19.70;99.60;;;;;;5054594;28;20475;-35
2023/10/04 07:12:56;;;;;;;1.95;1.00;;;19.80;99.60;;;;;;5054438;28;20017;-39
2023/10/04 07:15:24;;;;;;;1.88;1.08;;;19.80;99.60;;;;;;5054199;28;20025;-40
2023/10/04 07:17:50;;;;;;;2.33;1.20;;;19.80;99.70;;;;;;5054218;28;20460;-42
2023/10/04 07:20:18;;;;;;;2.72;1.05;;;19.80;99.70;;;;;;5054255;28;20025;-41
2023/10/04 07:23:03;;;;;;;2.40;1.40;;;19.90;99.80;;;;;;5054225;28;20021;-35
2023/10/04 07:25:34;;;;;;;;;;;19.90;99.70;;;;;;5054456;28;20486;-39
2023/10/04 07:28:02;;;;;;;2.03;1.17;;;19.90;99.80;;;;;;5054078;28;19905;-46
2023/10/04 07:30:30;;;;;;;2.45;1.15;;;19.80;99.80;;;;;;5054133;28;20042;-41
2023/10/04 07:32:58;;;;;;;1.95;1.30;;;19.90;99.90;;;;;;5054044;28;20021;-35
2023/10/04 07:35:25;;;;;;;1.75;1.20;;;19.90;99.90;;;;;;5053962;28;20061;-40
2023/10/04 07:37:56;;;;;;;1.98;1.10;;;19.90;99.90;;;;;;5053910;28;20060;-35
2023/10/04 07:40:23;;;;;;;1.20;0.82;;;19.90;99.90;;;;;;5053813;28;20025;-43
2023/10/04 07:42:54;;;;;;;2.60;1.27;;;19.90;99.90;;;;;;5053882;28;20478;-40
2023/10/04 07:45:25;;;;;;;1.55;0.90;;;19.90;99.90;;;;;;5053681;28;20021;-37
2023/10/04 07:47:51;;;;;;;1.60;1.20;;;20.00;99.90;;;;;;5053592;28;20025;-37
2023/10/04 07:50:25;;;;;;;1.60;1.00;;;19.90;99.90;;;;;;5054320;28;20394;-40
2023/10/04 07:53:04;;;;;;;1.88;1.10;;;19.90;99.90;;;;;;5053670;28;20021;-44
2023/10/04 07:55:30;;;;;;;1.80;1.20;;;20.00;99.90;;;;;;5053568;28;20079;-42
2023/10/04 07:58:04;;;;;;;1.23;0.82;;;20.00;99.90;;;;;;5054675;28;20029;-43
2023/10/04 08:00:31;;;;;;;1.52;1.00;;;20.00;99.90;;;;;;5053891;28;20437;-39
2023/10/04 08:02:57;;;;;;;2.47;1.33;;;20.00;99.90;;;;;;5053440;28;20040;-47
2023/10/04 08:05:29;;;;;;;1.67;1.00;;;20.00;99.90;;;;;;5053280;28;20493;-35
2023/10/04 08:07:56;;;;;;;1.88;1.10;;;20.10;99.90;;;;;;5053423;28;20029;-40
2023/10/04 08:10:25;;;;;;;2.10;1.17;;;20.00;99.90;;;;;;5053698;28;20044;-35
2023/10/04 08:12:53;;;;;;;2.13;1.17;;;20.10;99.90;;;;;;5054819;28;20554;-37
2023/10/04 08:15:21;;;;;;;1.60;1.10;;;20.00;99.90;;;;;;5053240;28;20060;-34
2023/10/04 08:17:48;;;;;;;1.80;1.17;;;20.10;99.90;;;;;;5053104;28;20021;-34
2023/10/04 08:20:17;;;;;;;1.50;1.02;;;20.10;99.90;;;;;;5053216;28;20021;-37
2023/10/04 08:22:44;;;;;;;1.98;1.10;;;20.10;99.90;;;;;;5053137;28;20037;-36
2023/10/04 08:25:13;;;;;;;1.92;1.20;;;20.10;99.90;;;;;;5035469;28;20039;-37
2023/10/04 08:27:39;;;;;;;1.17;0.80;;;20.10;99.90;;;;;;5052928;28;20053;-37
2023/10/04 08:30:12;;;;;;;1.98;1.08;;;20.10;99.90;;;;;;5052994;28;20033;-39
2023/10/04 08:32:47;;;;;;;1.30;0.90;;;20.10;99.90;;;;;;5053016;28;20024;-38
2023/10/04 08:35:28;;;;;;;1.85;1.00;;;20.20;99.90;;;;;;5052883;28;20390;-39
2023/10/04 08:37:58;;;;;;;2.70;1.15;;;20.20;99.90;;;;;;5052779;28;20040;-37
2023/10/04 08:40:27;;;;;;;2.55;1.17;;;20.20;99.90;;;;;;5052874;28;20032;-36
2023/10/04 08:42:53;;;;;;;2.08;1.30;;;20.10;99.90;;;;;;5052700;28;20106;-40
2023/10/04 08:45:20;;;;;;;2.83;1.30;;;20.10;99.90;;;;;;5052544;28;20064;-37
2023/10/04 08:47:56;;;;;;;1.13;0.85;;;20.20;99.90;;;;;;5053013;28;20078;-39
2023/10/04 08:50:40;;;;;;;1.25;0.95;;;20.20;99.90;;;;;;5052721;28;20032;-38
2023/10/04 08:53:29;;;;;;;1.30;0.88;;;20.20;99.90;;;;;;5052601;28;20028;-34
2023/10/04 08:56:08;;;;;;;2.17;1.08;;;20.20;99.90;;;;;;5052321;28;20029;-39
2023/10/04 08:58:36;;;;;;;1.52;1.13;;;20.20;99.90;;;;;;5052470;28;20043;-38
2023/10/04 09:01:05;;;;;;;1.67;1.00;;;20.20;99.90;;;;;;5052320;28;20029;-36
2023/10/04 09:03:31;;;;;;;1.48;0.75;;;20.20;99.90;;;;;;5052242;28;20497;-38
2023/10/04 09:05:57;;;;;;;2.03;1.20;;;20.20;99.90;;;;;;5052041;28;20036;-36
2023/10/04 09:08:25;;;;;;;1.25;0.93;;;20.30;99.90;;;;;;5052213;28;20017;-39
2023/10/04 09:10:55;;;;;;;1.63;1.20;;;20.30;99.90;;;;;;5052234;28;20104;-42
2023/10/04 09:13:22;;;;;;;1.27;0.80;;;20.30;99.90;;;;;;5052217;28;20075;-38
2023/10/04 09:15:48;;;;;;;1.20;0.73;;;20.30;99.90;;;;;;5052997;28;20025;-37
2023/10/04 09:18:27;;;;;;;1.58;1.15;;;20.30;99.90;;;;;;5052717;28;20051;-41
2023/10/04 09:20:53;;;;;;;1.80;1.10;;;20.30;99.90;;;;;;5052164;28;20025;-39
2023/10/04 09:23:27;;;;;;;1.98;1.15;;;20.30;99.90;;;;;;5052088;28;20095;-36
2023/10/04 09:25:55;;;;;;;2.88;1.20;;;20.30;99.90;;;;;;5051065;28;20549;-39
2023/10/04 09:28:35;;;;;;;2.08;1.00;;;20.30;99.90;;;;;;5051880;28;20024;-39
2023/10/04 09:31:12;;;;;;;2.03;1.15;;;20.30;99.90;;;;;;5051907;28;20021;-37
2023/10/04 09:33:39;;;;;;;1.88;1.00;;;20.30;99.90;;;;;;5052169;28;20484;-38
2023/10/04 09:36:04;;;;;;;1.33;1.08;;;20.40;99.90;;;;;;5051740;28;20052;-41
2023/10/04 09:38:31;;;;;;;1.67;1.00;;;20.40;99.90;;;;;;5052404;28;20474;-38
2023/10/04 09:40:59;;;;;;;2.17;0.90;;;20.40;99.90;;;;;;5051697;28;20017;-34
2023/10/04 09:43:39;;;;;;;2.30;0.90;;;20.40;99.90;;;;;;5051564;28;20107;-35
2023/10/04 09:46:12;;;;;;;2.05;1.17;;;20.40;99.90;;;;;;5051348;28;20025;-37
2023/10/04 09:48:46;;;;;;;1.75;0.98;;;20.50;99.90;;;;;;5052521;28;20029;-36
2023/10/04 09:51:12;;;;;;;2.40;0.90;;;20.40;99.90;;;;;;5051761;28;20028;-39
2023/10/04 09:53:41;;;;;;;3.22;1.27;;;20.40;99.90;;;;;;5051557;28;20021;-39
2023/10/04 09:56:11;;;;;;;1.17;0.70;;;20.40;99.90;;;;;;5051393;28;20442;-38
2023/10/04 09:58:45;;;;;;;1.98;1.30;;;20.50;99.90;;;;;;5051865;28;20021;-46
2023/10/04 10:01:12;;;;;;;1.70;0.98;;;20.50;99.90;;;;;;5051380;28;20457;-38
2023/10/04 10:03:56;;;;;;;1.63;1.10;;;20.50;99.90;;;;;;5051398;28;20393;-38
2023/10/04 10:06:23;;;;;;;1.40;0.88;;;20.50;99.90;;;;;;5051140;28;20112;-38
2023/10/04 10:08:55;;;;;;;2.08;1.10;;;20.50;99.90;;;;;;5051217;28;20086;-39
2023/10/04 10:11:22;;;;;;;2.28;0.88;;;20.50;99.90;;;;;;5051272;28;20025;-37
2023/10/04 10:13:49;;;;;;;4.15;0.98;;;20.50;99.90;;;;;;5033351;28;20021;-35
2023/10/04 10:16:16;;;;;;;1.40;0.85;;;20.50;99.90;;;;;;5050993;28;20391;-39
2023/10/04 10:18:41;;;;;;;1.67;0.88;;;20.50;99.90;;;;;;5033433;28;20136;-43
2023/10/04 10:21:08;;;;;;;1.63;0.88;;;20.60;99.90;;;;;;5051171;28;20112;-39
2023/10/04 10:24:03;;;;;;;1.85;1.08;;;20.60;99.90;;;;;;5051155;28;20029;-45
2023/10/04 10:26:30;;;;;;;;;;;20.60;99.90;;;;;;5051280;28;20471;-34
2023/10/04 10:29:03;;;;;;;1.98;1.20;;;20.60;99.90;;;;;;5051524;28;19911;-41
2023/10/04 10:31:29;;;;;;;1.20;0.80;;;20.60;99.90;;;;;;5051130;28;20023;-35
2023/10/04 10:33:56;;;;;;;2.67;1.02;;;20.60;99.90;;;;;;5051133;28;20018;-38
2023/10/04 10:36:27;;;;;;;1.60;0.88;;;20.60;99.90;;;;;;5051693;28;20083;-39
2023/10/04 10:38:54;;;;;;;2.88;0.93;;;20.60;99.90;;;;;;5056165;28;20057;-37
2023/10/04 10:41:49;;;;;;;4.20;1.00;;;20.70;99.90;;;;;;5055011;28;20559;-40
2023/10/04 10:44:18;;;;;;;2.28;1.00;;;20.70;99.90;;;;;;5055063;28;20086;-36
2023/10/04 10:47:07;;;;;;;2.40;1.13;;;20.70;99.90;;;;;;5054783;28;20294;-37
2023/10/04 10:49:41;;;;;;;1.52;0.98;;;20.70;99.90;;;;;;5054947;28;20486;-44
2023/10/04 10:52:29;;;;;;;1.95;1.17;;;20.70;99.90;;;;;;5055088;28;20032;-35
2023/10/04 10:54:59;;;;;;;3.28;1.10;;;20.70;99.90;;;;;;5054765;28;20055;-39
2023/10/04 10:57:28;;;;;;;1.88;1.20;;;20.70;99.90;;;;;;5054864;28;20091;-35
2023/10/04 11:00:02;;;;;;;1.38;0.98;;;20.70;99.90;;;;;;5036822;28;20027;-40
2023/10/04 11:02:28;;;;;;;2.00;1.10;;;20.70;99.90;;;;;;5054742;28;20033;-36
2023/10/04 11:04:54;;;;;;;1.60;0.98;;;20.70;99.90;;;;;;5054433;28;20033;-39
2023/10/04 11:07:22;;;;;;;1.88;0.90;;;20.70;99.90;;;;;;5054406;28;20024;-42
2023/10/04 11:09:55;;;;;;;2.05;0.88;;;20.70;99.90;;;;;;5036680;28;20029;-39
2023/10/04 11:12:22;;;;;;;2.38;1.00;;;20.80;99.90;;;;;;5054482;28;20036;-42
2023/10/04 11:14:49;;;;;;;1.13;0.80;;;20.70;99.90;;;;;;5054190;28;20025;-40
2023/10/04 11:17:15;;;;;;;2.45;0.82;;;20.70;99.90;;;;;;5054286;28;20028;-41
2023/10/04 11:19:41;;;;;;;2.00;1.00;;;20.70;99.90;;;;;;5054402;28;20032;-38
2023/10/04 11:22:10;;;;;;;2.08;1.00;;;20.70;99.90;;;;;;5054306;28;20013;-42
2023/10/04 11:24:36;;;;;;;2.60;1.15;;;20.80;99.90;;;;;;5054171;28;20032;-35
2023/10/04 11:27:03;;;;;;;4.10;1.20;;;20.80;99.90;;;;;;5054085;28;20029;-35
2023/10/04 11:29:31;;;;;;;2.05;0.85;;;20.80;99.90;;;;;;5053917;28;20052;-36
2023/10/04 11:31:58;;;;;;;1.75;0.82;;;20.80;99.90;;;;;;5054123;28;20052;-38
2023/10/04 11:34:26;;;;;;;1.33;0.98;;;20.80;99.90;;;;;;5054080;28;20382;-42
2023/10/04 11:36:58;;;;;;;2.35;0.88;;;20.80;99.90;;;;;;5035967;28;20029;-43
2023/10/04 11:39:33;;;;;;;1.92;1.05;;;20.80;99.90;;;;;;5054009;28;20108;-43
2023/10/04 11:42:03;;;;;;;1.55;0.73;;;20.80;99.90;;;;;;5054470;28;20029;-46
2023/10/04 11:44:33;;;;;;;1.27;0.90;;;20.80;99.90;;;;;;5053758;28;20296;-38
2023/10/04 11:47:08;;;;;;;1.92;1.00;;;20.80;99.90;;;;;;5053674;28;20037;-41
2023/10/04 11:49:35;;;;;;;1.45;0.80;;;20.80;99.90;;;;;;5053536;28;20470;-36
2023/10/04 11:52:04;;;;;;;1.02;0.70;;;20.80;99.90;;;;;;5053728;28;20052;-38
2023/10/04 11:55:00;;;;;;;2.10;0.88;;;20.80;99.90;;;;;;5053563;28;20044;-37
2023/10/04 11:57:28;;;;;;;2.17;0.90;;;20.80;99.90;;;;;;5037651;28;20049;-38
2023/10/04 11:59:56;;;;;;;2.92;1.17;;;20.80;99.90;;;;;;5053813;28;20382;-41
2023/10/04 12:02:22;;;;;;;2.05;1.05;;;20.90;99.90;;;;;;5053526;28;20025;-37
2023/10/04 12:04:49;;;;;;;2.10;0.90;;;20.80;99.90;;;;;;5053338;28;20028;-37
2023/10/04 12:07:15;;;;;;;2.58;1.20;;;20.90;99.90;;;;;;5054505;28;20029;-37
2023/10/04 12:09:40;;;;;;;1.83;0.90;;;20.80;99.90;;;;;;5057066;28;20043;-36
2023/10/04 12:12:06;;;;;;;2.15;0.93;;;20.90;99.90;;;;;;5056520;28;20489;-37
2023/10/04 12:14:32;;;;;;;1.83;1.10;;;20.90;99.90;;;;;;5053343;28;20028;-39
2023/10/04 12:17:03;;;;;;;1.40;0.90;;;20.90;99.90;;;;;;5053295;28;20182;-36
2023/10/04 12:19:34;;;;;;;2.33;1.00;;;20.90;99.90;;;;;;5053049;28;20029;-35
2023/10/04 12:22:08;;;;;;;1.88;0.95;;;20.90;99.90;;;;;;5053205;28;20501;-38
2023/10/04 12:24:38;;;;;;;1.38;0.77;;;20.90;99.90;;;;;;5053102;28;20032;-40
2023/10/04 12:27:08;;;;;;;1.75;0.95;;;20.90;99.90;;;;;;5052883;28;20036;-39
2023/10/04 12:29:36;;;;;;;1.92;1.00;;;20.90;99.90;;;;;;5053103;28;20033;-38
2023/10/04 12:32:02;;;;;;;1.85;1.00;;;20.90;99.90;;;;;;5052895;28;20109;-37
2023/10/04 12:34:29;;;;;;;2.30;1.17;;;20.90;99.90;;;;;;5052966;28;20494;-40
2023/10/04 12:36:55;;;;;;;1.52;0.85;;;20.90;99.90;;;;;;5052838;28;20116;-38
2023/10/04 12:39:21;;;;;;;1.50;0.98;;;20.90;99.90;;;;;;5052847;28;20059;-38
2023/10/04 12:41:49;;;;;;;1.70;0.93;;;20.90;99.90;;;;;;5052770;28;20443;-35
2023/10/04 12:44:18;;;;;;;1.35;0.98;;;20.90;99.90;;;;;;5052742;28;20031;-38
2023/10/04 12:46:45;;;;;;;1.20;0.77;;;20.90;99.90;;;;;;5052548;28;20052;-37
2023/10/04 12:49:11;;;;;;;2.13;1.02;;;21.00;99.90;;;;;;5052634;28;20455;-34
2023/10/04 12:51:37;;;;;;;1.42;0.85;;;20.90;99.90;;;;;;5052622;28;20110;-34
2023/10/04 12:54:09;;;;;;;2.35;0.98;;;20.90;99.90;;;;;;5052868;28;20025;-34
2023/10/04 12:56:36;;;;;;;1.88;0.80;;;20.90;99.90;;;;;;5052380;28;20048;-38